EDVK METAR and TAF | Updated Today

EDVK METAR

Kassel-Calden Airport

Observation time: 5 min. ago

EDVK 080620Z 14008KT 9000 SCT007 BKN012 02/00 Q0998

Need help? Read our tutorial on how to read METARs or read the parsed version below.

Kassel-Calden Airport (EDVK) METAR

  • Weather conditions on Wed, 08 Dec 2021 06:20:00 +0000 (5 min. ago):
  • Present conditions: Dry
  • Clouds: Scattered at 213 meters; broken sky at 366 meters
  • Visibility: 9000 meters
  • Wind: 140 degrees at 8 knots
  • Temperature: 2 celsius
  • Dew point: 0 celsius
  • Pressure: 998 millibars
  • Remarks: None


Useful to know...

EDVK TAF

Kassel-Calden Airport

TAF EDVK 071700Z 0718/0803 15006KT 9999 FEW020 BECMG 0721/0724 14012KT TEMPO 0800/0803 16015G25KT
Observation time: 13:25 hr. ago
Need help? Read our tutorial on how to read TAFs or read the parsed version below.

Parsed version of TAF for Kassel-Calden Airport (EDVK)

  • From 07 December at 18:00 UTC, to day 08 of the month at 03:00 UTC
  • Clouds: A few at 610 meters
  • Visibility: Greater than 10 km
  • Wind: 150 degrees at 6
  • Expected to arise soon, from 07 December at 21:00 UTC, to day 07 of the month at 24:00 UTC
  • Wind: 140 degrees at 12
  • Expected to arise temporarily, from 08 December at 00:00 UTC, to day 08 of the month at 03:00 UTC
  • Wind: 160 degrees at 15